Bristol, Wielka Brytania

23:24 GMT dnia 01-marzec-2015 (GMT +0000)
IENGLAND416 | Change Station
CLOSE
Current Station
Stacja PWS
Location: Bristol, ENGLAND
n.p.m.: 223 ft
Najbliższa stacja pogodowa

Wysokość 223 ft 51.48 °N, 2.60 °W | Updated 23 minutes ago

Mostly Cloudy
przewaga chmur
39.6 ° F
Odczuwalna 38 ° F
Płn.
3.1
Wiatr zmienny Wiatr od PnWs
Gusts 5.4 mph

Dziś
Wysoka -- | Niska -- ° F
--% Prawdop. opadów
Wczoraj
Wysoka -- | Niska -- ° F
Precip. -- cali
6:56 AM 5:50 PM
Powiększający się Księżyc, 88% visible
Ciśnienie 29.56 cali
Widzialność 6.2 mil
chmury obłoki zanikające 1000 ft
przewaga chmur 2200 ft
czynnik chłodzący wiatru 38 ° F
Punkt rosy 34 ° F
Wilgotność 80%
Opady deszczu 0.05 cali
grubość pokrywy śnieżnej Niedostępne.
UV 0 z 12
Pyłki Niedostępne.
Jakość powietrza Niedostępne.
Flu Activity Niedostępne.
METAR EGGD 012250Z 24009KT 9999 SCT010 BKN022 03/02 Q1001

More Conditions Fewer Conditions

Ciśnienie 29.56 cali
Widzialność 6.2 mil
chmury obłoki zanikające 1000 ft
przewaga chmur 2200 ft
czynnik chłodzący wiatru 38 ° F
Punkt rosy 34 ° F
Wilgotność 80%
Opady deszczu 0.05 cali
grubość pokrywy śnieżnej Niedostępne.
UV 0 z 12
Pyłki Niedostępne.
Jakość powietrza Niedostępne.
Flu Activity Niedostępne.
METAR EGGD 012250Z 24009KT 9999 SCT010 BKN022 03/02 Q1001

More Conditions Fewer Conditions

10-Day Weather Forecast

Almanac

Astronomia

Mar. 01, 2015 Wschód Zachów
Aktualny czas
Zmierzch cywilny
Zmierzch żeglarski
świt/zmierzch astronomiczny
Księżyc
całkowite oświetlenie
Długość dnia
Tomorrow will be .
, % of the Moon is Illuminated

Dzisiejsze ekstrema

Country Highs Country Lows

Community

WunderPhotos

Upload Photos

1,801,605 zdjęcia zostały przesłane!

WunderBlogs® & News

Nearby

Jakość powietrza

  Jakość powietrza czynnik AQ Zanieczyszczenie
Not available.

Głębokość pokrywy śnieżnej

Station Depth n.p.m.

Aktywność sejsmiczna

Miejscowość Distance Mag. Time & Date
Minimum magnitude displayed is 2.5.

Temperatury wody na wybrzeżu

Miejsce Temperatura

Najbliższa stacja pogodowa